METARS
Date METAR Location Area
20/12/2014 LG1B 200830Z 22503KT 12/09 Q1022 Arsakeio Athens
20/12/2014 LGY7 200930Z 24802KT 15/09 Q1022 Aegina Attica
20/12/2014 LGH5 200930Z 18002KT 15/10 Q1021 Ampelokipoi Attica
20/12/2014 LGS5 200930Z 31502KT 15/13 Q1015 Anavissos Attica
20/12/2014 LGO0 200930Z 24804KT 13/10 Q1022 Ano Liosia Attica
20/12/2014 LGB9 200930Z 20302KT 15/10 Q1023 Athens - Gazi Attica
20/12/2014 LGL5 200930Z 20304KT 13/09 Q1021 Ekali Attica
20/12/2014 LGS3 200930Z 27001KT 15/10 Q1022 Faliro Attica
20/12/2014 LGM3 200630Z 11302KT 12/09 Q1023 Hydra Attica
20/12/2014 LGO2 200630Z 02305KT 09/06 Q1024 Imittos Attica
20/12/2014 LGT8 200930Z 06800KT 13/09 Q1023 Ippokratios Attica
20/12/2014 LG99 200930Z 20302KT 16/10 Q1022 Kantza Attica
20/12/2014 LG13 201000Z 00000KT 12/09 Q1023 Kifissia Attica
19/12/2014 LGD6 191430Z 00004KT 15/11 Q1020 Lavrio Attica
20/12/2014 LGK0 200930Z 22503KT 13/09 Q1022 Marousi Attica
20/12/2014 LG00 201010Z 24004KT 13/08 Q1019 Marousi (Anavrita) Attica
20/12/2014 LGR0 200930Z 22502KT 15/10 Q1022 Nea Smirni Attica
20/12/2014 LGM8 200930Z 22500KT 15/10 Q1023 Neos Kosmos Attica
20/12/2014 LGK3 200930Z 29311KT 06/04 Q1022 Parnitha 1230 EAA Attica
20/12/2014 LGT6 200930Z 29302KT 15/10 Q1022 Patissia Attica
20/12/2014 LG67 201000Z 2701728G12150KT 132/87 Q10217 Penteli Attica
20/12/2014 LGX9 200930Z 27008KT 11/09 Q1020 Penteli Attica
20/12/2014 LGU0 200930Z 24809KT 14/08 Q1022 Peristeri Attica
20/12/2014 LGY6 200930Z 24805KT 15/11 Q1021 Porto Rafti Attica
20/12/2014 LG96 200930Z 22503KT 15/10 Q1022 Psychico Attica
20/12/2014 LGZ0 200930Z 11303KT 15/11 Q1021 Rafina Attica
20/12/2014 LG2B 200930Z 20305KT 15/10 Q1021 SEF Attica
20/12/2014 LGG2 200930Z 27005KT 15/09 Q1021 Spata Attica
20/12/2014 LGS6 200930Z 29303KT 16/11 Q1021 Spetses Attica
20/12/2014 LG3B 200930Z 24804KT 14/09 Q1023 Tatoi Attica
20/12/2014 LGZ2 200930Z 22504KT 16/10 Q1022 Vari Attica
20/12/2014 LGR6 200930Z 22513KT 11/08 Q1022 Vilia Attica
20/12/2014 LG74 200700Z 00000KT 106/88 Q10213 Ymittos Attica
20/12/2014 LGG1 200940Z 225864G6966KT 144/106 Q196 Kalivia Thorikou Attica E
20/12/2014 LG45 200930Z 24807KT 15/11 Q1023 Markopoulo Attica E
20/12/2014 LG72 200700Z 00000KT 89/82 Q10203 Keratea Attica SE
19/12/2014 LGW4 190730Z 02300KT 11/08 Q1018 Ag. Ioannis Sfakion Crete
20/12/2014 LGJ9 200930Z 11304KT 17/11 Q1022 Aghios Nikolaos Crete
20/12/2014 LGT4 200930Z 15800KT 17/10 Q1022 Alikianos Crete
20/12/2014 LGB6 200930Z 29302KT 10/07 Q1021 Anogeia Crete
20/12/2014 LGZ6 200930Z 22500KT 09/09 Q1025 Askyfou Crete
20/12/2014 LG25 200930Z 04503KT 18/10 Q1022 Chania Crete
20/12/2014 LGN3 200930Z 31501KT 18/10 Q1023 Chania Center Crete
20/12/2014 LG61 200930Z 04502KT 17/11 Q1022 Cost - Irakleio Crete
20/12/2014 LGL9 200930Z 24803KT 16/12 Q1022 Falasarna Crete
20/12/2014 LG9A 200930Z 29306KT 15/11 Q1021 Finokalia - Lasithi Crete
20/12/2014 LGL1 200930Z 27002KT 14/07 Q1021 Fourfouras Crete
20/12/2014 LGD4 200930Z 13500KT 16/14 Q1022 Fragmapotamon - Rethymno Crete
20/12/2014 LG30 200930Z 24801KT 16/11 Q1023 Heraklion - Knossos Crete
20/12/2014 LG95 200930Z 04508KT 17/10 Q1022 Ierapetra Crete
10/12/2014 LGP0 100630Z 06803KT 18/12 Q1013 Lentas Hrakleion Crete
20/12/2014 LGD7 200830Z 06801KT 14/11 Q1023 Metaxochori - Heraklion Crete
20/12/2014 LGI2 200930Z 06800KT 17/09 Q1022 Mires Crete
20/12/2014 LG36 200930Z 02302KT 19/09 Q1022 Paleochora Crete
20/12/2014 LG8A 200930Z 04502KT 16/11 Q1016 Pirathi Heraklion Crete
20/12/2014 LG58 200930Z 31503KT 17/11 Q1021 Rethymno Crete
20/12/2014 LGT2 200930Z 04500KT 19/10 Q1021 Rethymno - Plakia Crete
20/12/2014 LGY1 200930Z 29301KT 13/07 Q1025 Samaria Crete
20/12/2014 LGB4 200930Z 31503KT 09/M03 Q1025 Samaria Crete
20/12/2014 LGM2 200930Z 29305KT 17/11 Q1021 Sitia Crete
20/12/2014 LG75 200930Z 31502KT 14/09 Q1024 Spili - Rethymnon Crete
20/12/2014 LG50 200930Z 02300KT 11/08 Q1023 Tzermiado Lasithi Crete
20/12/2014 LG70 200930Z 06800KT 18/09 Q1022 Vrysses Crete
20/12/2014 LGT5 200930Z 20303KT 16/11 Q1021 Amorgos Cyclades
20/12/2014 LGN6 200930Z 24807KT 15/12 Q1022 Andros Cyclades
19/12/2014 LGS7 191430Z 00009KT 16/11 Q1021 Donoussa Cyclades
20/12/2014 LGI0 200930Z 24802KT 16/11 Q1022 Ios Cyclades
20/12/2014 LGP5 200930Z 29303KT 16/12 Q1022 Iraklia Cyclades
20/12/2014 LGE3 200930Z 27001KT 15/11 Q1023 Kea Cyclades
20/12/2014 LGX8 200930Z 22504KT 17/11 Q1022 Koufonissia Cyclades
20/12/2014 LGS0 200930Z 24806KT 15/11 Q1024 Milos Cyclades
20/12/2014 LG66 200930Z 29303KT 16/11 Q1022 Mykonos Cyclades
20/12/2014 LGM0 200930Z 18001KT 16/11 Q1023 Naxos Cyclades
20/12/2014 LGV3 200930Z 22506KT 09/06 Q1023 Naxos - Apiranthos Cyclades
20/12/2014 LGT0 200930Z 09003KT 16/10 Q1023 Naxos - Apollonas Cyclades
20/12/2014 LGU1 200930Z 27000KT 13/09 Q1023 Naxos - Damarionas Cyclades
19/12/2014 LGU2 191130Z 33803KT 11/09 Q1021 Naxos - Koronos Cyclades
20/12/2014 LGN7 200930Z 22500KT 16/11 Q1022 Naxos - Kynidaros Cyclades
20/12/2014 LGW1 200930Z 29302KT 15/11 Q1022 Naxos - Melanes Cyclades
20/12/2014 LGO7 200930Z 33801KT 16/12 Q1023 Naxos - Mikri Vigla Cyclades
19/12/2014 LG02 191730Z 02306KT 14/11 Q1023 Paros Cyclades
20/12/2014 LGX5 200930Z 27004KT 16/10 Q1021 Santorini Cyclades
20/12/2014 LGX7 200930Z 24804KT 15/11 Q1023 Schinoussa Cyclades
07/07/2014 LG07 070730Z 00000KT 255/97 Q10099 Tinos Cyclades
20/12/2014 LGB8 200930Z 33801KT 16/11 Q1023 Tinos NOA Cyclades
20/12/2014 LGAB 200930Z 27004KT 14/08 Q1020 Emponas - Rhodes Dodecanese
19/12/2014 LGG6 191930Z 29301KT 15/09 Q1021 Kalymnos Dodecanese
20/12/2014 LGAC 200930Z 27006KT 17/11 Q1020 Kattavia - Rhodes Dodecanese
20/12/2014 LGAA 200930Z 00003KT 18/10 Q1021 Lindos - Rhodes Dodecanese
20/12/2014 LG65 200930Z 04500KT 18/11 Q1022 Patmos Dodecanese
20/12/2014 LGS9 200930Z 22503KT 17/11 Q1022 Rhodes Dodecanese
20/12/2014 LGM5 200930Z 29309KT 17/12 Q1020 Kasos Dodecanisa
20/12/2014 LGX1 200930Z 29303KT 16/09 Q1021 Kos Dodekanissa
20/12/2014 LG4A 200930Z 15803KT 16/11 Q1021 Chios East Aegean
20/12/2014 LGT1 200930Z 29301KT -RA 17/12 Q1021 Fournoi East Aegean
20/12/2014 LGI9 200930Z 29301KT 12/10 Q1020 Ikaria East Aegean
20/12/2014 LGI5 200930Z 24805KT 13/12 Q1019 Lemnos East Aegean
20/12/2014 LGI6 200930Z 00000KT 15/11 Q1020 Lesvos East Aegean
20/12/2014 LGJ3 200930Z 18003KT 15/11 Q1025 Lesvos - Thermi East Aegean
20/12/2014 LGZ7 201530Z 33807KT 18/07 Q1018 Mantamados East Aegean
20/12/2014 LGY5 200930Z 20302KT 12/09 Q1023 Molyvos East Aegean
20/12/2014 LGF1 200930Z 00000KT 17/12 Q1021 Samos East Aegean
20/12/2014 LGW7 200930Z 22508KT 13/10 Q1015 Akrotirio Paksimada Evia
20/12/2014 LGO3 200930Z 24801KT 13/11 Q1021 Chalkida Evia
20/12/2014 LGR5 200830Z 13504KT 12/10 Q1022 Kavodoro Evia
09/12/2014 LGY0 090700Z 11300KT 09/05 Q1034 Krieza Evia
20/12/2014 LGX0 200930Z 15801KT 14/08 Q1023 Kymi Evia
25/11/2014 LGT7 251000Z 27004KT 09/07 Q1011 Setta Evia
20/12/2014 LG81 200930Z 06800KT 14/09 Q1021 Steni Evia
19/12/2014 LGC4 192230Z 04504KT 09/08 Q1023 Styra Evia
20/12/2014 LGD3 200930Z 22506KT 14/12 Q1022 Zarakes Evia
20/12/2014 LGP6 200630Z 00000KT M01/M02 Q1027 Agia Kyriaki Ioanninon Hepirus
20/12/2014 LGO1 200930Z 00000KT 07/06 Q1022 Aridaia Hepirus
20/12/2014 LGD2 200930Z 04500KT 11/08 Q1024 Arta - Kompoti Hepirus
20/12/2014 LG38 200930Z 09005KT 12/07 Q1024 Arta - Vlacherna Hepirus
19/12/2014 LGE4 191230Z 00000KT 12/05 Q1022 Aspraggeloi Hepirus
20/12/2014 LGI3 200930Z 11301KT 09/06 Q1024 Derviziana Hepirus
20/12/2014 LGP4 200930Z 29301KT 10/07 Q1024 Dodoni Hepirus
02/12/2014 LGL8 021430Z 02304KT 24/07 Q1015 Grammos Hepirus
20/12/2014 LG43 200930Z 06805KT 09/06 Q1023 Igoumenitsa Hepirus
20/12/2014 LG49 200930Z 00000KT 03/03 Q1025 Ioannina Anatoli Hepirus
20/12/2014 LGK1 200930Z 06803KT 12/07 Q1023 Kanali, Preveza Hepirus
20/12/2014 LGE0 200930Z 00002KT 09/05 Q1024 Katarraktis - Arta Hepirus
20/12/2014 LGO5 200930Z 27002KT 06/02 Q1024 Kerasovo Konitsa Hepirus
20/12/2014 LG3A 200930Z 22502KT 04/04 Q1026 Konitsa Hepirus
20/12/2014 LGO8 200930Z 18003KT 07/02 Q1022 Metsovo Hepirus
20/12/2014 LGK6 200930Z 13500KT 07/03 Q1026 Papigo Hepirus
20/12/2014 LGF6 200630Z 00000KT 04/02 Q1023 Paramythia Hepirus
15/12/2014 LGK9 151630Z 09002KT 13/11 Q1025 Parga Hepirus
20/12/2014 LGK7 200530Z 02300KT 04/03 Q1023 Pesta Hepirus
20/12/2014 LGY9 200830Z 24800KT 06/00 Q1070 Plikati Ioanninon Hepirus
20/12/2014 LGP1 200930Z 22501KT 09/05 Q1025 Pramanta Hepirus
20/12/2014 LGK2 200930Z 15800KT 07/04 Q1024 Theodoriana, Arta Hepirus
20/12/2014 LGD0 200730Z 06800KT 04/01 Q1023 Tristeno - Ioannina Hepirus
20/12/2014 LGM4 200930Z 29300KT 05/05 Q1025 Tyria Hepirus
20/12/2014 LGR8 200930Z 22501KT 10/05 Q1024 Vourgareli Artas Hepirus
20/12/2014 LGN9 200830Z 18000KT 02/01 Q1028 Vovoussa Hepirus
20/12/2014 LGN0 200930Z 24800KT 08/07 Q1023 Zitsa Hepirus
20/12/2014 LGJ2 200930Z 06800KT 15/12 Q1023 Corfu - Gouvia Ionio
20/12/2014 LGB0 200930Z 13501KT 16/13 Q1024 Ithaki Ionio
20/12/2014 LGI7 200730Z 00000KT 14/11 Q1025 Lefkada Ionio
20/12/2014 LGN1 200930Z 06800KT 14/11 Q1023 Paxoi Ionio
20/12/2014 LGN4 200930Z 31502KT 17/12 Q1023 Zakynthos Ionio
20/12/2014 LGG9 200930Z 02301KT 05/03 Q1022 Amynteo Macedonia
20/12/2014 LG33 200930Z 27001KT 10/05 Q1020 Chalkidiki - Polygyros Macedonia
28/11/2014 LGJ1 280430Z 00000KT 09/08 Q1024 Chalkidiki - Stratoni Macedonia
20/12/2014 LGZ5 200930Z 27003KT 04/04 Q1020 Didymoteicho Macedonia
19/12/2014 LG55 192030Z 22503KT 05/04 Q1022 Dion Macedonia
20/12/2014 LGU8 200930Z 24800KT 05/05 Q1021 Doxato - Drama Macedonia
20/12/2014 LGH3 200950Z 35100KT 05/04 Q1021 Drama Macedonia
20/12/2014 LGH6 200930Z 22500KT 05/05 Q1020 Drama 2 Macedonia
20/12/2014 LGY3 200930Z 00002KT 06/05 Q1022 Eleutheroupoli Macedonia
27/11/2014 LGJ6 272050Z 15916G27KT 02/02 Q1009 Falakro Macedonia
20/12/2014 LG63 200930Z 00000KT 02/02 Q1027 Florina Macedonia
20/12/2014 LGZ8 200930Z 29300KT 05/04 Q1022 Fotolivos Macedonia
20/12/2014 LG73 200930Z 00000KT 08/06 Q1021 Giannitsa Macedonia
20/12/2014 LGF2 200930Z 11301KT 03/02 Q1023 Grevena Macedonia
20/12/2014 LGO4 200930Z 04501KT 09/04 Q1023 Hmathia - Rizomata Macedonia
20/12/2014 LG93 200930Z 31511KT 05/M05 Q1022 Kaimaktsalan Macedonia
27/11/2014 LGN8 272050Z 19217G43KT 32/29 Q979 Kartakla - Falakro Macedonia
20/12/2014 LGO9 200930Z 24802KT 13/11 Q1021 Kassandreia (Xalkidiki) Macedonia
20/12/2014 LG27 200950Z 12700KT 12/06 Q1021 Kavala - Dexameni Macedonia
20/12/2014 LG42 200930Z 00002KT 09/06 Q1020 Kilkis Macedonia
20/12/2014 LGW8 200930Z 02309KT 07/04 Q1022 Kimisi Macedonia
20/12/2014 LGJ4 200930Z 09001KT 03/03 Q1025 Kozani - Ardassa Macedonia
20/12/2014 LGP3 200930Z 29303KT 07/02 Q1021 Lailias - Serres Macedonia
20/12/2014 LGZ9 200930Z 09001KT 02/02 Q1024 Mavropigi Macedonia
20/12/2014 LG40 200930Z 20300KT 09/05 Q1022 Naousa Macedonia
20/12/2014 LG4B 200930Z 15802KT 12/09 Q1021 Nea Peramos Macedonia
20/12/2014 LGZ4 200930Z 15801KT 15/11 Q1020 Neos Marmaras Macedonia
20/12/2014 LG48 200930Z 18001KT 02/01 Q1020 Nevrokopi Drama Macedonia
20/12/2014 LGS4 200930Z 31500KT 04/03 Q1022 Notio Pedio - Eordea Macedonia
20/12/2014 LGW0 200930Z 11301KT 07/05 Q1022 Paranesti Macedonia
19/12/2014 LG26 191230Z 29302KT 07/05 Q1022 Ptolemaida Macedonia
20/12/2014 LG87 200930Z 15803KT 09/01 Q1021 Seli Ski Center Macedonia
20/12/2014 LGW6 200930Z 04500KT 05/04 Q1023 Serres Macedonia
19/12/2014 LGD9 190730Z 00000KT -RA 13/12 Q1017 Serres - Kerkini Macedonia
20/12/2014 LG14 200800Z 00000G31104KT 38/36 Q10216 Serres - Proti Macedonia
20/12/2014 LG5B 200930Z 00001KT 10/08 Q1020 Thasos Macedonia
07/12/2014 LGY8 071419Z 31505KT 9999 SCT036 10/00 Q1010 Thassos Macedonia
20/12/2014 LGR9 200830Z 24801KT 07/06 Q1022 Thessaloniki Macedonia
20/12/2014 LGF0 200930Z 11301KT 06/04 Q1022 Variko Macedonia
10/12/2014 LG82 100530Z 27001KT 05/02 Q1021 Vassilitsa Macedonia
20/12/2014 LGC2 200930Z 33801KT 13/11 Q1019 Vatopedi - Athos Macedonia
20/12/2014 LGE9 200930Z 33800KT 03/02 Q1025 Vegoritida Macedonia
20/12/2014 LGE5 200930Z 31500KT 11/07 Q1021 Veroia Macedonia
20/12/2014 LG98 200830Z 00000KT 07/04 Q1024 Vlasti - Kozani Macedonia
20/12/2014 LGF5 201001Z 27703KT 07/03 Q1021 Vounochori - Kavala Macedonia
20/12/2014 LGU5 200930Z 22506KT 16/11 Q1021 Agioi Theodoroi Peloponissos
20/12/2014 LGU7 200930Z 18001KT 13/06 Q1023 Alagonia - Messinia Peloponissos
20/12/2014 LG52 200930Z 00000KT 16/11 Q1023 Amaliada Peloponissos
20/12/2014 LG77 200930Z 13502KT 10/08 Q1024 Andritsaina Peloponissos
20/12/2014 LGU6 200930Z 20301KT 16/11 Q1024 Arfara - Messinia Peloponissos
20/12/2014 LGT3 200930Z 31501KT 14/09 Q1022 Argos Peloponissos
20/12/2014 LGV0 200630Z 15803KT 10/04 Q1021 Derveni Peloponissos
28/11/2014 LGK4 280730Z 15801KT -RA 03/02 Q1021 Elati Peloponissos
20/12/2014 LGC3 200930Z 27004KT 11/08 Q1023 Foloi - Ilia Peloponissos
20/12/2014 LGX6 200630Z 00002KT 09/05 Q1024 Geraki Peloponissos
20/12/2014 LGB7 200930Z 22502KT 15/10 Q1023 Ilia - Vartholomio Peloponissos
20/12/2014 LG85 200930Z 33804KT 14/11 Q1021 Isthmos Peloponissos
20/12/2014 LG6A 200830Z 31502KT 16/07 Q1024 Kalamata Peloponissos
20/12/2014 LGV7 200930Z 22502KT 05/04 Q1026 Kalavryta Peloponissos
20/12/2014 LGZ3 200930Z 27009KT 17/10 Q1023 Kardamyli Peloponissos
20/12/2014 LGJ5 200630Z 04505KT 10/08 Q1023 Katakolo Peloponissos
20/12/2014 LGP7 200930Z 31506KT 09/07 Q1025 18 Kato Vlassia Peloponissos
27/11/2014 LGB2 272000Z 20301KT 27/23 Q1011 Katoachaia Peloponissos
20/12/2014 LGB5 200930Z 27004KT 15/10 Q1022 Kavomalias Peloponissos
20/12/2014 LGM7 200930Z 33802KT 15/09 Q1023 Kranidi Peloponissos
20/12/2014 LGV1 200930Z 31501KT 17/11 Q1023 Kyparissia Peloponissos
20/12/2014 LGW9 200930Z 20303KT 10/06 Q1023 Lagadia Peloponissos
20/12/2014 LG0A 200930Z 18005KT 11/05 Q1025 Lampia - Ilia Peloponissos
20/12/2014 LG92 200930Z 00000KT 14/11 Q1022 Lappa-Larissos-Achaia Peloponissos
07/12/2014 LG91 070630Z 00000KT 21/15 Q1012 Lousika-Olenias-Achaia Peloponissos
20/12/2014 LGV4 200930Z 20304KT 12/08 Q1023 Lykochia Peloponissos
20/12/2014 LGG5 200930Z 00000KT 08/08 Q1024 Megalopoli Peloponissos
20/12/2014 LGV2 200930Z 24804KT 15/09 Q1024 Messinia - Kopanaki Peloponissos
20/12/2014 LGF8 200930Z 13502KT 15/08 Q1022 Molaoi Peloponissos
20/12/2014 LG56 200930Z 20309KT 17/09 Q1022 Monemvasia Peloponissos
20/12/2014 LGE1 200930Z 00000KT 10/09 Q1021 Nemea Peloponissos
20/12/2014 LGD5 200930Z 00000KT 13/09 Q1023 Oleni - Ilia Peloponissos
20/12/2014 LGB3 200930Z 09000KT 12/08 Q1023 Olympia Peloponissos
19/12/2014 LGV6 190130Z 11302KT 02/M01 Q1022 Panachaiko Oros Peloponissos
20/12/2014 LGZ1 200930Z 22504KT 14/11 Q1022 Patra Peloponissos
20/12/2014 LG79 200105Z 00000KT 102/67 Q10234 Patra - Agia Peloponissos
18/12/2014 LG71 180850Z 00000G2592KT 117/91 Q10170 Patra - Drosia Peloponissos
20/12/2014 LG84 200830Z 27004KT 14/12 Q1024 Patra - Port Peloponissos
20/12/2014 LG59 200930Z 09003KT 15/10 Q1022 Pirgos Peloponissos
20/12/2014 LGH8 200930Z 22510KT 15/12 Q1023 Rio Peloponissos
20/12/2014 LGT9 200830Z 22501KT 14/09 Q1022 Romanos - Patra Peloponissos
20/12/2014 LGA0 200930Z 00000KT 14/11 Q1022 Sagaiika Peloponissos
20/12/2014 LGF7 200830Z 00000KT 12/09 Q1024 Sparti Peloponissos
20/12/2014 LGS2 200930Z 20303KT 09/06 Q1024 Stemnitsa Peloponissos
20/12/2014 LGR1 200930Z 24806KT 10/02 Q1021 Trikala Korinthias Peloponissos
20/12/2014 LG83 200930Z 11301KT 10/07 Q1025 Tripoli Peloponissos
20/12/2014 LGU9 200930Z 24801KT 09/05 Q1024 Vytina Peloponissos
20/12/2014 LG86 200930Z 27002KT 16/12 Q1023 Zaxaro Peloponissos
20/12/2014 LGN2 200930Z 04501KT 14/10 Q1023 Alonissos Sporades
20/12/2014 LGI1 200930Z 15806KT 15/11 Q1021 Skyros Sporades
20/12/2014 LGH9 200930Z 00000KT 12/08 Q1026 Agrinio Sterea Ellada
20/12/2014 LGC7 200930Z 02302KT 13/10 Q1024 Aitoliko Sterea Ellada
20/12/2014 LG29 200930Z 00000KT 11/04 Q1021 Amfiklia Sterea Ellada
20/12/2014 LGH1 201000Z 00000G31104KT 118/41 Q10217 Amfiklia 2 Sterea Ellada
20/12/2014 LGG8 200930Z 11305KT 13/08 Q1024 Antikira Sterea Ellada
19/12/2014 LG97 190220Z 34002KT 06/01 Q1020 Arachova Sterea Ellada
20/12/2014 LGC5 200930Z 31502KT 11/05 Q1023 Arahova Sterea Ellada
20/12/2014 LGH0 200930Z 00002KT 14/10 Q1020 Avlida Sterea Ellada
20/12/2014 LGR2 200930Z 00000KT 08/05 Q1023 Dam of Mornos Sterea Ellada
20/12/2014 LGR3 200930Z 24800KT 10/06 Q1024 Diakopi of Lidoriki Sterea Ellada
20/12/2014 LGW5 200930Z 24800KT 09/06 Q1021 Domokos Sterea Ellada
14/12/2014 LG21 141323Z 24804KT 29/15 Q1014 Evia - Chalkida Sterea Ellada
20/12/2014 LGY4 200930Z 29310KT 16/10 Q1021 Galaxidi Sterea Ellada
20/12/2014 LGC8 201000Z 00000KT 124/85 Q10230 Gavalou - Aitol/nia Sterea Ellada
20/12/2014 LGJ7 200930Z 20316KT 13/09 Q1022 Kaparelli Sterea Ellada
20/12/2014 LGC9 200930Z 24800KT 02/01 Q1026 Karpenisi Sterea Ellada
20/12/2014 LGP9 200930Z 29304KT 14/09 Q1019 Kleidi Viotias Sterea Ellada
20/12/2014 LGR4 200930Z 06800KT 09/03 Q1024 Koniakos of Lidoriki Sterea Ellada
20/12/2014 LG5A 200930Z 11301KT 09/07 Q1021 Kopaida Sterea Ellada
20/12/2014 LGV9 200930Z 24802KT 12/06 Q1021 Lamia Sterea Ellada
20/12/2014 LGJ8 200830Z 33800KT 06/05 Q1021 Lefkochori Sterea Ellada
12/12/2014 LGI8 120930Z 29308KT 11/08 Q1014 Livadeia Sterea Ellada
20/12/2014 LGE7 200930Z 11300KT 13/07 Q1019 Makrakomi Sterea Ellada
20/12/2014 LGA6 200830Z 24806KT 06/01 Q1023 Mavrolithari - Vardousia Sterea Ellada
20/12/2014 LGK8 200930Z 22504KT 08/04 Q1022 Myriki Sterea Ellada
20/12/2014 LGG4 200930Z 31502KT 08/03 Q1023 Orini Nafpaktia Sterea Ellada
01/12/2014 LGA4 010800Z 09009KT -SN 02/M02 Q1009 Parnassos Sterea Ellada
20/12/2014 LGF9 200230Z 00000KT 00/00 Q 0 Parnassos1950 Sterea Ellada
20/12/2014 LGL0 200930Z 15800KT 11/07 Q1022 Polydroso Sterea Ellada
07/12/2014 LGR7 071230Z 04508KT 11/09 Q1025 Prasino - Viotia Sterea Ellada
20/12/2014 LG69 200930Z 00000KT 14/10 Q1021 Tanagra Sterea Ellada
20/12/2014 LGO6 200930Z 29300KT 14/12 Q1022 Theologos Sterea Ellada
20/12/2014 LG94 200930Z 00000KT 94/65 Q10213 Hortiatis Thes/niki
20/12/2014 LG15 201013Z 18100KT 11/M02 Q1024 Kamara Thes/niki Thes/niki
20/12/2014 LGA5 200930Z 11300KT 04/04 Q1022 Lagadas Thes/niki
24/11/2014 LG11 240730Z 12901KT 10/06 Q1006 West Thes/niki Thes/niki
20/12/2014 LGV5 200630Z 00000KT 03/03 Q1024 Tsamantas Thesprotia
10/12/2014 LGL4 100630Z 00000KT 02/01 Q1015 Gardiki Thessalia
20/12/2014 LGW3 200930Z 33803KT 10/05 Q1020 Kalabaka Thessalia
20/12/2014 LG2A 200930Z 18003KT 05/05 Q1022 Karditsa Thessalia
20/12/2014 LGU3 192310Z 00000G1728KT 47/43 Q10217 Larissa Thessalia
20/12/2014 LGL6 200930Z 24801KT 05/04 Q1022 Larissa Thessalia
28/11/2014 LGL7 282230Z 24812KT 16/05 Q1014 Limni Plastira Thessalia
20/12/2014 LG6B 200830Z 27002KT 11/09 Q1019 Moni Paou Thessalia
26/11/2014 LGU4 260700Z 29304KT 04/M07 Q1013 Olympos Thessalia
20/12/2014 LG7A 201000Z 3371728G8694KT 71/55 Q10214 Pedio Areos Volou Thessalia
20/12/2014 LGE2 200930Z 22501KT 03/03 Q1022 Pertouli Thessalia
20/12/2014 LGY2 200930Z 00001KT 11/05 Q1021 Portaria - Pelio Thessalia
20/12/2014 LG80 200930Z 00001KT 15/10 Q1022 Skopelos - Sporades Thessalia
20/12/2014 LG24 200930Z 18003KT 14/10 Q1021 Sporades - Skiathos Thessalia
20/12/2014 LG57 200930Z 06800KT 06/05 Q1022 Trikala Thessalia
20/12/2014 LG51 200930Z 27000KT 08/08 Q1021 Volos Thessalia
20/12/2014 LGG3 200930Z 09002KT 09/07 Q1023 Zagora EAA Thessalia
20/12/2014 LGD8 200930Z 24804KT 13/10 Q1020 Alexandroupolis Thraki
20/12/2014 LGM9 200930Z 15800KT 12/10 Q1019 Imeros Thraki
09/12/2014 LG35 091750Z 33604KT 23/15 Q1013 Komotini Thraki
20/12/2014 LGL2 200930Z 00000KT 04/04 Q1020 Metaxades - Evros Thraki
20/12/2014 LG31 200930Z 31502KT 05/05 Q1019 Orestiada Thraki
20/12/2014 LGC1 200930Z 13504KT 14/11 Q1021 Samothraki Thraki
20/12/2014 LGC6 200930Z 02300KT 11/08 Q1020 Xanthi Thraki
www.meteorologia.gr